Castaic, California
Current Conditions -  °F | °C
As of 8:51 AM on Sunday 21 Dec 2014 (Local Time) from KVNY Reporting Station
Haze Haze  
Wind Chill: 56°   Ceiling: Unl
Heat Index: 56°   Visibility: 6mi
Dew Point: 47°   Wind: 9mph
Humidity: 72%   Direction: 120°ESE
Pressure: 30.14"   Gusts: NA
Location:  34.48°N, 118.59°W
Report Text: KVNY 211651Z 12008KT 6SM HZ CLR 13/08 A3014 RMK AO2 SLP202 T01330083
Loading
Personal Weather Stations






























Interactive Weather Map New forecast layout! Learn more

10-Day Weather Forecast

Advertisements
Track Severe Weather on mobile